createdAt,value
2023-02-14T00:02:27.041Z,102279.69
2023-02-14T00:06:38.876Z,102284.79
2023-02-14T00:10:46.830Z,102286.36
2023-02-14T00:15:12.125Z,102279.13
2023-02-14T00:19:21.374Z,102277.52
2023-02-14T00:23:29.085Z,102276.83
2023-02-14T00:27:36.806Z,102273.15
2023-02-14T00:31:45.559Z,102267.20
2023-02-14T00:35:53.239Z,102264.02
2023-02-14T00:40:00.442Z,102261.39
2023-02-14T00:44:09.652Z,102264.55
2023-02-14T00:48:17.692Z,102269.95
2023-02-14T00:52:25.435Z,102275.91
2023-02-14T00:56:35.058Z,102283.46
2023-02-14T01:00:43.130Z,102279.24
2023-02-14T01:04:50.715Z,102274.69
2023-02-14T01:08:58.582Z,102267.12
2023-02-14T01:13:07.323Z,102264.30
2023-02-14T01:17:15.083Z,102260.61
2023-02-14T01:21:24.869Z,102261.66
2023-02-14T01:25:33.259Z,102266.58
2023-02-14T01:29:41.482Z,102266.52
2023-02-14T01:33:50.607Z,102264.38
2023-02-14T01:37:57.989Z,102267.52
2023-02-14T01:42:06.259Z,102267.52
2023-02-14T01:46:14.355Z,102269.63
2023-02-14T01:50:25.041Z,102272.79
2023-02-14T01:54:34.896Z,102275.61
2023-02-14T01:58:45.565Z,102279.80
2023-02-14T02:02:54.211Z,102271.17
2023-02-14T02:07:07.490Z,102270.45
2023-02-14T02:11:17.876Z,102265.34
2023-02-14T02:15:27.499Z,102262.70
2023-02-14T02:20:05.496Z,102265.34
2023-02-14T02:24:24.836Z,102263.59
2023-02-14T02:29:00.236Z,102257.08
2023-02-14T02:33:32.696Z,102254.27
2023-02-14T02:37:48.444Z,102246.17
2023-02-14T02:42:07.681Z,102250.90
2023-02-14T02:46:37.390Z,102241.24
2023-02-14T02:51:10.139Z,102238.08
2023-02-14T02:55:22.558Z,102234.55
2023-02-14T02:59:33.708Z,102242.10
2023-02-14T03:04:00.495Z,102238.91
2023-02-14T03:08:09.661Z,102232.92
2023-02-14T03:12:24.959Z,102232.20
2023-02-14T03:16:38.599Z,102239.58
2023-02-14T03:20:51.218Z,102230.23
2023-02-14T03:25:02.401Z,102231.10
2023-02-14T03:29:17.726Z,102238.12
2023-02-14T03:33:29.575Z,102241.61
2023-02-14T03:37:40.652Z,102231.92
2023-02-14T03:41:53.534Z,102236.11
2023-02-14T03:46:04.750Z,102237.72
2023-02-14T03:50:14.625Z,102237.40
2023-02-14T03:54:23.660Z,102237.41
2023-02-14T03:58:34.830Z,102239.88
2023-02-14T04:02:44.647Z,102246.02
2023-02-14T04:06:52.251Z,102247.75
2023-02-14T04:11:02.645Z,102257.02
2023-02-14T04:15:14.912Z,102258.59
2023-02-14T04:19:25.507Z,102263.50
2023-02-14T04:23:33.837Z,102263.31
2023-02-14T04:27:41.437Z,102264.71
2023-02-14T04:31:50.358Z,102259.11
2023-02-14T04:36:01.289Z,102256.13
2023-02-14T04:40:11.039Z,102257.37
2023-02-14T04:44:18.605Z,102255.26
2023-02-14T04:48:27.588Z,102250.16
2023-02-14T04:52:35.475Z,102242.80
2023-02-14T04:56:46.070Z,102236.84
2023-02-14T05:00:55.160Z,102245.98
2023-02-14T05:05:03.017Z,102251.04
2023-02-14T05:09:10.631Z,102249.63
2023-02-14T05:13:18.908Z,102248.94
2023-02-14T05:17:27.202Z,102248.94
2023-02-14T05:21:35.759Z,102247.02
2023-02-14T05:25:44.444Z,102250.70
2023-02-14T05:29:52.427Z,102247.70
2023-02-14T05:34:00.468Z,102252.60
2023-02-14T05:38:08.528Z,102250.31
2023-02-14T05:42:16.334Z,102251.19
2023-02-14T05:46:23.855Z,102247.67
2023-02-14T05:50:31.728Z,102253.12
2023-02-14T05:54:41.719Z,102258.56
2023-02-14T05:58:49.507Z,102256.27
2023-02-14T06:02:57.516Z,102265.07
2023-02-14T06:07:06.218Z,102271.39
2023-02-14T06:11:13.668Z,102275.24
2023-02-14T06:15:23.273Z,102275.77
2023-02-14T06:19:31.122Z,102283.66
2023-02-14T06:23:39.710Z,102285.40
2023-02-14T06:27:49.365Z,102287.33
2023-02-14T06:31:57.849Z,102284.33
2023-02-14T06:36:05.978Z,102283.61
2023-02-14T06:40:15.940Z,102285.02
2023-02-14T06:44:24.401Z,102294.16
2023-02-14T06:48:32.667Z,102294.88
2023-02-14T06:52:42.462Z,102291.03
2023-02-14T06:56:50.429Z,102298.95
2023-02-14T07:01:00.487Z,102293.00
2023-02-14T07:05:09.083Z,102294.41
2023-02-14T07:09:18.613Z,102304.22
2023-02-14T07:13:26.906Z,102304.20
2023-02-14T07:17:35.348Z,102306.30
2023-02-14T07:21:43.136Z,102306.13
2023-02-14T07:25:52.422Z,102312.13
2023-02-14T07:30:00.092Z,102316.39
2023-02-14T07:34:07.810Z,102318.54
2023-02-14T07:38:16.338Z,102317.16
2023-02-14T07:42:23.880Z,102319.45
2023-02-14T07:46:31.695Z,102315.55
2023-02-14T07:50:39.867Z,102315.55
2023-02-14T07:54:47.417Z,102312.05
2023-02-14T07:58:55.023Z,102309.77
2023-02-14T08:03:02.525Z,102316.81
2023-02-14T08:07:10.562Z,102309.27
2023-02-14T08:11:39.025Z,102320.89
2023-02-14T08:16:04.090Z,102322.14
2023-02-14T08:20:13.881Z,102322.90
2023-02-14T08:24:22.171Z,102317.46
2023-02-14T08:28:33.519Z,102319.24
2023-02-14T08:32:41.937Z,102320.66
2023-02-14T08:36:49.746Z,102323.31
2023-02-14T08:40:58.031Z,102326.84
2023-02-14T08:45:07.180Z,102326.48
2023-02-14T08:49:15.242Z,102321.40
2023-02-14T08:53:23.422Z,102325.61
2023-02-14T08:57:31.010Z,102328.77
2023-02-14T09:01:39.212Z,102328.62
2023-02-14T09:05:46.765Z,102332.54
2023-02-14T09:09:55.101Z,102334.33
2023-02-14T09:14:05.235Z,102339.80
2023-02-14T09:18:14.201Z,102341.44
2023-02-14T09:22:22.402Z,102343.23
2023-02-14T09:26:30.264Z,102351.15
2023-02-14T09:30:38.469Z,102353.26
2023-02-14T09:34:45.818Z,102353.60
2023-02-14T09:38:53.929Z,102354.48
2023-02-14T09:43:13.155Z,102353.78
2023-02-14T09:47:27.164Z,102357.47
2023-02-14T09:51:35.240Z,102354.50
2023-02-14T09:55:48.210Z,102354.36
2023-02-14T10:00:01.811Z,102346.67
2023-02-14T10:04:25.908Z,102350.05
2023-02-14T10:08:46.861Z,102352.03
2023-02-14T10:12:57.408Z,102349.06
2023-02-14T10:17:09.468Z,102353.99
2023-02-14T10:21:23.319Z,102348.37
2023-02-14T10:25:32.433Z,102348.36
2023-02-14T10:29:39.737Z,102342.74
2023-02-14T10:33:57.091Z,102337.65
2023-02-14T10:38:11.960Z,102336.77
2023-02-14T10:42:27.790Z,102330.27
2023-02-14T10:46:44.612Z,102331.55
2023-02-14T10:50:57.905Z,102321.73
2023-02-14T10:55:30.100Z,102325.23
2023-02-14T10:59:48.776Z,102316.80
2023-02-14T11:04:04.526Z,102322.80
2023-02-14T11:08:29.433Z,102314.39
2023-02-14T11:12:39.508Z,102316.34
2023-02-14T11:16:52.037Z,102313.52
2023-02-14T11:21:12.563Z,102298.04
2023-02-14T11:25:24.734Z,102296.29
2023-02-14T11:29:35.657Z,102292.23
2023-02-14T11:33:46.335Z,102285.71
2023-02-14T11:37:55.984Z,102290.65
2023-02-14T11:42:06.525Z,102286.42
2023-02-14T11:46:36.119Z,102279.74
2023-02-14T11:50:54.562Z,102277.98
2023-02-14T11:55:02.615Z,102267.79
2023-02-14T11:59:12.386Z,102265.70
2023-02-14T12:03:22.276Z,102262.32
2023-02-14T12:07:33.439Z,102261.30
2023-02-14T12:11:42.220Z,102263.94
2023-02-14T12:15:56.672Z,102263.23
2023-02-14T12:20:09.994Z,102259.89
2023-02-14T12:24:24.508Z,102257.25
2023-02-14T12:28:38.748Z,102254.27
2023-02-14T12:32:50.694Z,102248.63
2023-02-14T12:37:20.998Z,102250.21
2023-02-14T12:41:36.874Z,102244.11
2023-02-14T12:46:01.106Z,102248.52
2023-02-14T12:50:25.317Z,102240.40
2023-02-14T12:54:46.489Z,102237.19
2023-02-14T12:59:05.513Z,102236.48
2023-02-14T13:03:39.980Z,102235.07
2023-02-14T13:08:07.586Z,102231.55
2023-02-14T13:12:26.836Z,102227.20
2023-02-14T13:16:39.485Z,102221.77
2023-02-14T13:20:54.233Z,102222.27
2023-02-14T13:25:05.090Z,102218.52
2023-02-14T13:29:15.295Z,102215.71
2023-02-14T13:33:34.767Z,102221.17
2023-02-14T13:37:42.884Z,102222.09
2023-02-14T13:41:51.600Z,102220.70
2023-02-14T13:46:01.013Z,102219.64
2023-02-14T13:50:23.391Z,102214.36
2023-02-14T13:54:36.261Z,102212.77
2023-02-14T13:58:52.473Z,102217.52
2023-02-14T14:03:00.133Z,102216.30
2023-02-14T14:07:27.268Z,102214.19
2023-02-14T14:12:01.372Z,102219.29
2023-02-14T14:16:30.792Z,102219.64
2023-02-14T14:20:49.368Z,102222.99
2023-02-14T14:25:00.374Z,102226.14
2023-02-14T14:29:13.127Z,102220.47
2023-02-14T14:33:29.221Z,102218.17
2023-02-14T14:37:38.333Z,102216.59
2023-02-14T14:41:46.741Z,102214.81
2023-02-14T14:45:56.578Z,102212.87
2023-02-14T14:50:16.484Z,102211.45
2023-02-14T14:54:27.781Z,102210.05
2023-02-14T14:58:41.135Z,102205.09
2023-02-14T15:02:59.490Z,102202.98
2023-02-14T15:07:21.217Z,102199.29
2023-02-14T15:11:49.170Z,102194.00
2023-02-14T15:15:58.354Z,102191.33
2023-02-14T15:20:08.755Z,102188.68
2023-02-14T15:24:19.442Z,102182.87
2023-02-14T15:28:35.726Z,102183.05
2023-02-14T15:32:44.321Z,102181.12
2023-02-14T15:36:56.557Z,102176.73
2023-02-14T15:41:04.638Z,102180.98
2023-02-14T15:45:21.397Z,102177.64
2023-02-14T15:49:37.471Z,102178.88
2023-02-14T15:53:47.112Z,102175.35
2023-02-14T15:57:58.283Z,102169.38
2023-02-14T16:02:16.039Z,102170.61
2023-02-14T16:06:36.564Z,102166.74
2023-02-14T16:10:44.165Z,102164.10
2023-02-14T16:15:03.668Z,102163.36
2023-02-14T16:19:41.427Z,102171.80
2023-02-14T16:23:49.760Z,102167.05
2023-02-14T16:27:57.418Z,102172.14
2023-02-14T16:32:16.514Z,102171.03
2023-02-14T16:36:28.920Z,102170.48
2023-02-14T16:40:37.631Z,102165.72
2023-02-14T16:44:45.604Z,102170.11
2023-02-14T16:48:54.104Z,102173.13
2023-02-14T16:53:02.035Z,102174.15
2023-02-14T16:57:11.182Z,102173.61
2023-02-14T17:01:19.792Z,102169.92
2023-02-14T17:05:29.885Z,102170.98
2023-02-14T17:09:40.452Z,102172.73
2023-02-14T17:13:49.023Z,102166.23
2023-02-14T17:18:00.955Z,102171.67
2023-02-14T17:22:09.619Z,102170.27
2023-02-14T17:26:18.566Z,102176.23
2023-02-14T17:30:26.795Z,102174.96
2023-02-14T17:34:35.981Z,102173.00
2023-02-14T17:38:45.216Z,102169.65
2023-02-14T17:42:52.761Z,102168.02
2023-02-14T17:47:00.769Z,102166.08
2023-02-14T17:51:10.763Z,102165.90
2023-02-14T17:55:19.301Z,102169.41
2023-02-14T17:59:27.026Z,102172.75
2023-02-14T18:03:37.178Z,102171.17
2023-02-14T18:07:45.532Z,102166.79
2023-02-14T18:11:53.793Z,102169.11
2023-02-14T18:16:04.913Z,102164.88
2023-02-14T18:20:14.736Z,102164.52
2023-02-14T18:24:22.740Z,102160.98
2023-02-14T18:28:35.149Z,102159.40
2023-02-14T18:32:43.437Z,102155.17
2023-02-14T18:36:51.268Z,102154.80
2023-02-14T18:40:58.990Z,102151.63
2023-02-14T18:45:08.058Z,102154.24
2023-02-14T18:49:16.199Z,102151.06
2023-02-14T18:53:24.020Z,102150.52
2023-02-14T18:57:32.192Z,102149.13
2023-02-14T19:01:43.430Z,102139.11
2023-02-14T19:05:53.543Z,102138.77
2023-02-14T19:10:00.882Z,102132.43
2023-02-14T19:14:10.948Z,102135.59
2023-02-14T19:18:19.036Z,102135.77
2023-02-14T19:22:27.920Z,102131.86
2023-02-14T19:26:40.487Z,102122.14
2023-02-14T19:30:49.211Z,102122.43
2023-02-14T19:34:57.154Z,102121.31
2023-02-14T19:39:05.380Z,102122.47
2023-02-14T19:43:13.628Z,102120.48
2023-02-14T19:47:31.313Z,102119.72
2023-02-14T19:51:49.484Z,102118.08
2023-02-14T19:55:57.741Z,102115.05
2023-02-14T20:00:08.969Z,102116.70
2023-02-14T20:04:20.953Z,102109.95
2023-02-14T20:08:28.726Z,102106.89
2023-02-14T20:12:37.092Z,102104.86
2023-02-14T20:16:45.108Z,102107.59
2023-02-14T20:21:05.687Z,102106.79
2023-02-14T20:25:14.039Z,102105.75
2023-02-14T20:29:23.584Z,102100.67
2023-02-14T20:33:31.603Z,102100.48
2023-02-14T20:37:39.384Z,102090.70
2023-02-14T20:41:50.298Z,102091.17
2023-02-14T20:46:01.539Z,102085.20
2023-02-14T20:50:12.243Z,102078.98
2023-02-14T20:54:20.469Z,102079.98
2023-02-14T20:58:28.321Z,102084.48
2023-02-14T21:02:36.200Z,102083.55
2023-02-14T21:06:45.067Z,102083.27
2023-02-14T21:10:53.080Z,102079.70
2023-02-14T21:15:00.599Z,102075.07
2023-02-14T21:19:08.568Z,102073.94
2023-02-14T21:23:19.536Z,102070.20
2023-02-14T21:27:27.393Z,102072.45
2023-02-14T21:31:36.262Z,102071.52
2023-02-14T21:35:44.680Z,102071.27
2023-02-14T21:39:52.780Z,102065.10
2023-02-14T21:44:01.786Z,102054.90
2023-02-14T21:48:26.980Z,102057.05
2023-02-14T21:52:35.559Z,102054.30
2023-02-14T21:56:45.651Z,102048.92
2023-02-14T22:00:52.923Z,102042.17
2023-02-14T22:05:01.390Z,102037.20
2023-02-14T22:09:12.314Z,102036.14
2023-02-14T22:13:19.973Z,102033.02
2023-02-14T22:17:28.238Z,102033.57
2023-02-14T22:21:37.297Z,102030.27
2023-02-14T22:25:45.699Z,102026.93
2023-02-14T22:29:54.021Z,102024.66
2023-02-14T22:34:01.506Z,102020.28
2023-02-14T22:38:10.561Z,102010.29
2023-02-14T22:42:19.587Z,102003.92
2023-02-14T22:46:29.246Z,101997.71
2023-02-14T22:50:37.627Z,102002.89
2023-02-14T22:54:45.522Z,102001.95
2023-02-14T22:58:56.885Z,102001.77
2023-02-14T23:03:05.386Z,101996.16
2023-02-14T23:07:15.163Z,101991.08
2023-02-14T23:11:25.689Z,101985.49
2023-02-14T23:15:50.694Z,101979.04
2023-02-14T23:20:16.511Z,101972.58
2023-02-14T23:24:25.957Z,101960.84
2023-02-14T23:28:34.220Z,101963.61
2023-02-14T23:32:42.345Z,101960.92
2023-02-14T23:36:49.931Z,101965.23
2023-02-14T23:41:15.541Z,101957.84
2023-02-14T23:45:37.655Z,101950.98
2023-02-14T23:49:46.293Z,101945.71
2023-02-14T23:53:56.520Z,101932.77
2023-02-14T23:58:05.911Z,101935.42
